createdAt,value
2016-10-15T00:00:55.723Z,0
2016-10-15T00:01:55.738Z,0
2016-10-15T00:02:55.696Z,0
2016-10-15T00:03:55.686Z,0
2016-10-15T00:04:55.702Z,0
2016-10-15T00:05:55.651Z,0
2016-10-15T00:06:55.700Z,0
2016-10-15T00:07:55.623Z,0
2016-10-15T00:08:55.625Z,0
2016-10-15T00:09:55.601Z,0
2016-10-15T00:10:55.600Z,0
2016-10-15T00:11:55.611Z,0
2016-10-15T00:12:55.572Z,0
2016-10-15T00:13:55.571Z,0
2016-10-15T00:14:55.539Z,0
2016-10-15T00:15:55.528Z,0
2016-10-15T00:16:55.552Z,0
2016-10-15T00:17:55.516Z,0
2016-10-15T00:18:55.485Z,0
2016-10-15T00:19:55.505Z,0
2016-10-15T00:20:55.497Z,0
2016-10-15T00:21:55.488Z,0
2016-10-15T00:22:55.455Z,0
2016-10-15T00:23:55.471Z,0
2016-10-15T00:24:55.430Z,0
2016-10-15T00:25:55.425Z,0
2016-10-15T00:26:55.424Z,0
2016-10-15T00:27:55.410Z,0
2016-10-15T00:28:55.385Z,0
2016-10-15T00:29:55.370Z,0
2016-10-15T00:30:55.367Z,0
2016-10-15T00:31:55.381Z,0
2016-10-15T00:32:55.370Z,0
2016-10-15T00:33:55.357Z,0
2016-10-15T00:34:55.356Z,0
2016-10-15T00:35:55.320Z,0
2016-10-15T00:36:55.310Z,0
2016-10-15T00:37:55.275Z,0
2016-10-15T00:38:55.267Z,0
2016-10-15T00:39:55.283Z,0
2016-10-15T00:40:55.270Z,0
2016-10-15T00:41:55.223Z,0
2016-10-15T00:42:55.260Z,0
2016-10-15T00:43:55.247Z,0
2016-10-15T00:44:55.205Z,0
2016-10-15T00:45:55.231Z,0
2016-10-15T00:46:55.179Z,0
2016-10-15T00:47:55.141Z,0
2016-10-15T00:48:55.176Z,0
2016-10-15T00:49:55.121Z,0
2016-10-15T00:50:55.108Z,0
2016-10-15T00:51:55.115Z,0
2016-10-15T00:52:55.106Z,0
2016-10-15T00:53:55.113Z,0
2016-10-15T00:54:55.112Z,0
2016-10-15T00:55:55.087Z,0
2016-10-15T00:56:55.217Z,0
2016-10-15T00:57:55.055Z,0
2016-10-15T00:58:55.052Z,0
2016-10-15T00:59:55.027Z,0
2016-10-15T01:00:55.008Z,0
2016-10-15T01:01:54.993Z,0
2016-10-15T01:02:54.989Z,0
2016-10-15T01:03:54.965Z,0
2016-10-15T01:04:54.958Z,0
2016-10-15T01:05:54.991Z,0
2016-10-15T01:06:54.957Z,0
2016-10-15T01:07:55.235Z,0
2016-10-15T01:08:54.915Z,0
2016-10-15T01:09:54.921Z,0
2016-10-15T01:10:54.885Z,0
2016-10-15T01:11:54.892Z,0
2016-10-15T01:12:54.905Z,0
2016-10-15T01:13:54.863Z,0
2016-10-15T01:14:54.889Z,0
2016-10-15T01:15:54.862Z,0
2016-10-15T01:16:54.820Z,0
2016-10-15T01:17:54.842Z,0
2016-10-15T01:18:54.812Z,0
2016-10-15T01:19:54.800Z,0
2016-10-15T01:20:54.810Z,0
2016-10-15T01:21:54.785Z,0
2016-10-15T01:22:54.748Z,0
2016-10-15T01:23:54.740Z,0
2016-10-15T01:24:54.721Z,0
2016-10-15T01:25:54.740Z,0
2016-10-15T01:26:54.716Z,0
2016-10-15T01:27:54.712Z,0
2016-10-15T01:28:54.681Z,0
2016-10-15T01:29:54.656Z,0
2016-10-15T01:30:54.668Z,0
2016-10-15T01:31:54.661Z,0
2016-10-15T01:32:54.639Z,0
2016-10-15T01:33:54.651Z,0
2016-10-15T01:34:54.599Z,0
2016-10-15T01:35:54.629Z,0
2016-10-15T01:36:54.589Z,0
2016-10-15T01:37:54.594Z,0
2016-10-15T01:38:54.564Z,0
2016-10-15T01:39:54.570Z,0
2016-10-15T01:40:54.528Z,0
2016-10-15T01:41:54.530Z,0
2016-10-15T01:42:54.512Z,0
2016-10-15T01:43:54.507Z,0
2016-10-15T01:44:54.485Z,0
2016-10-15T01:45:54.467Z,0
2016-10-15T01:46:54.469Z,0
2016-10-15T01:47:54.458Z,0
2016-10-15T01:48:54.454Z,0
2016-10-15T01:49:54.452Z,0
2016-10-15T01:50:54.405Z,0
2016-10-15T01:51:54.413Z,0
2016-10-15T01:52:54.401Z,0
2016-10-15T01:53:54.405Z,0
2016-10-15T01:54:54.361Z,0
2016-10-15T01:55:54.350Z,0
2016-10-15T01:56:54.387Z,0
2016-10-15T01:57:54.673Z,0
2016-10-15T01:58:54.323Z,0
2016-10-15T01:59:54.343Z,0
2016-10-15T02:00:54.294Z,0
2016-10-15T02:01:54.276Z,0
2016-10-15T02:02:54.259Z,0
2016-10-15T02:03:54.280Z,0
2016-10-15T02:04:54.254Z,0
2016-10-15T02:05:54.581Z,0
2016-10-15T02:06:54.222Z,0
2016-10-15T02:07:54.205Z,0
2016-10-15T02:08:54.194Z,0
2016-10-15T02:09:54.218Z,0
2016-10-15T02:10:54.180Z,0
2016-10-15T02:11:54.200Z,0
2016-10-15T02:12:54.156Z,0
2016-10-15T02:13:54.151Z,0
2016-10-15T02:14:54.135Z,0
2016-10-15T02:15:54.117Z,0
2016-10-15T02:16:54.095Z,0
2016-10-15T02:17:54.059Z,0
2016-10-15T02:18:54.403Z,0
2016-10-15T02:19:54.028Z,0
2016-10-15T02:20:54.051Z,0
2016-10-15T02:21:54.024Z,0
2016-10-15T02:22:54.060Z,0
2016-10-15T02:23:54.033Z,0
2016-10-15T02:24:54.002Z,0
2016-10-15T02:25:54.009Z,0
2016-10-15T02:26:53.963Z,0
2016-10-15T02:27:53.968Z,0
2016-10-15T02:28:53.967Z,0
2016-10-15T02:29:53.922Z,0
2016-10-15T02:30:53.926Z,0
2016-10-15T02:31:53.927Z,0
2016-10-15T02:32:53.933Z,0
2016-10-15T02:33:53.910Z,0
2016-10-15T02:34:53.911Z,0
2016-10-15T02:35:53.865Z,0
2016-10-15T02:36:53.858Z,0
2016-10-15T02:37:53.855Z,0
2016-10-15T02:38:53.840Z,0
2016-10-15T02:39:53.806Z,0
2016-10-15T02:40:53.818Z,0
2016-10-15T02:41:53.791Z,0
2016-10-15T02:42:53.794Z,0
2016-10-15T02:43:53.801Z,0
2016-10-15T02:44:53.764Z,0
2016-10-15T02:45:53.750Z,0
2016-10-15T02:46:53.774Z,0
2016-10-15T02:47:53.713Z,0
2016-10-15T02:48:53.709Z,0
2016-10-15T02:49:53.701Z,0
2016-10-15T02:50:53.691Z,0
2016-10-15T02:51:53.664Z,0
2016-10-15T02:52:53.682Z,0
2016-10-15T02:53:53.660Z,0
2016-10-15T02:54:53.642Z,0
2016-10-15T02:55:53.611Z,0
2016-10-15T02:56:53.591Z,0
2016-10-15T02:57:53.596Z,0
2016-10-15T02:58:53.599Z,0
2016-10-15T02:59:53.574Z,0
2016-10-15T03:00:53.535Z,0
2016-10-15T03:01:53.545Z,0
2016-10-15T03:02:53.546Z,0
2016-10-15T03:03:53.534Z,0
2016-10-15T03:04:53.505Z,0
2016-10-15T03:05:53.476Z,0
2016-10-15T03:06:53.489Z,0
2016-10-15T03:07:53.503Z,0
2016-10-15T03:08:53.457Z,0
2016-10-15T03:09:53.428Z,0
2016-10-15T03:10:53.483Z,0
2016-10-15T03:11:53.410Z,0
2016-10-15T03:12:53.382Z,0
2016-10-15T03:13:53.396Z,0
2016-10-15T03:14:53.399Z,0
2016-10-15T03:15:53.394Z,0
2016-10-15T03:16:53.381Z,0
2016-10-15T03:17:53.326Z,0
2016-10-15T03:18:53.314Z,0
2016-10-15T03:19:53.325Z,0
2016-10-15T03:20:53.309Z,0
2016-10-15T03:21:53.285Z,0
2016-10-15T03:22:53.252Z,0
2016-10-15T03:23:53.254Z,0
2016-10-15T03:24:53.258Z,0
2016-10-15T03:25:53.252Z,0
2016-10-15T03:26:53.223Z,0
2016-10-15T03:27:53.191Z,0
2016-10-15T03:28:53.199Z,0
2016-10-15T03:29:53.199Z,0
2016-10-15T03:30:53.177Z,0
2016-10-15T03:31:53.139Z,0
2016-10-15T03:32:53.170Z,0
2016-10-15T03:33:53.172Z,0
2016-10-15T03:34:53.146Z,0
2016-10-15T03:35:53.107Z,0
2016-10-15T03:36:53.115Z,0
2016-10-15T03:37:53.106Z,0
2016-10-15T03:38:53.078Z,0
2016-10-15T03:39:53.081Z,0
2016-10-15T03:40:53.061Z,0
2016-10-15T03:41:53.050Z,0
2016-10-15T03:42:53.035Z,0
2016-10-15T03:43:53.040Z,0
2016-10-15T03:44:53.018Z,0
2016-10-15T03:45:53.015Z,0
2016-10-15T03:46:52.970Z,0
2016-10-15T03:47:53.002Z,0
2016-10-15T03:48:52.969Z,0
2016-10-15T03:49:52.923Z,0
2016-10-15T03:50:52.923Z,0
2016-10-15T03:51:52.933Z,0
2016-10-15T03:52:52.934Z,0
2016-10-15T03:53:52.893Z,0
2016-10-15T03:54:52.866Z,0
2016-10-15T03:55:52.859Z,0
2016-10-15T03:56:52.849Z,0
2016-10-15T03:57:52.822Z,0
2016-10-15T03:58:52.835Z,0
2016-10-15T03:59:52.825Z,0
2016-10-15T04:00:52.797Z,0
2016-10-15T04:01:52.799Z,0
2016-10-15T04:02:52.779Z,0
2016-10-15T04:03:53.003Z,0
2016-10-15T04:04:52.787Z,0
2016-10-15T04:05:52.763Z,0
2016-10-15T04:06:52.734Z,0
2016-10-15T04:07:52.729Z,0
2016-10-15T04:08:52.701Z,0
2016-10-15T04:09:52.674Z,0
2016-10-15T04:10:52.698Z,0
2016-10-15T04:11:52.685Z,0
2016-10-15T04:12:52.656Z,0
2016-10-15T04:13:52.629Z,0
2016-10-15T04:14:52.640Z,0
2016-10-15T04:15:52.626Z,0
2016-10-15T04:16:52.632Z,0
2016-10-15T04:17:52.559Z,0
2016-10-15T04:18:52.581Z,0
2016-10-15T04:19:52.557Z,0
2016-10-15T04:20:52.546Z,0
2016-10-15T04:21:52.538Z,0
2016-10-15T04:22:52.542Z,0
2016-10-15T04:23:52.521Z,0
2016-10-15T04:24:52.492Z,0
2016-10-15T04:25:52.490Z,0
2016-10-15T04:26:52.481Z,0
2016-10-15T04:27:52.477Z,0
2016-10-15T04:28:52.452Z,0
2016-10-15T04:29:52.433Z,0
2016-10-15T04:30:52.402Z,0
2016-10-15T04:31:52.413Z,0
2016-10-15T04:32:52.385Z,0
2016-10-15T04:33:52.370Z,0
2016-10-15T04:34:52.409Z,0
2016-10-15T04:35:52.377Z,0
2016-10-15T04:36:52.330Z,0
2016-10-15T04:37:52.330Z,0
2016-10-15T04:38:52.312Z,0
2016-10-15T04:39:52.316Z,0
2016-10-15T04:40:52.293Z,0
2016-10-15T04:41:52.296Z,0
2016-10-15T04:42:52.257Z,0
2016-10-15T04:43:52.246Z,0
2016-10-15T04:44:52.246Z,0
2016-10-15T04:45:52.235Z,0
2016-10-15T04:46:52.208Z,0
2016-10-15T04:47:52.218Z,0
2016-10-15T04:48:52.511Z,0
2016-10-15T04:49:52.193Z,0
2016-10-15T04:50:52.366Z,0
2016-10-15T04:51:52.154Z,0
2016-10-15T04:52:52.114Z,0
2016-10-15T04:53:52.112Z,0
2016-10-15T04:54:52.105Z,0
2016-10-15T04:55:52.098Z,0
2016-10-15T04:56:52.058Z,0
2016-10-15T04:57:52.048Z,0
2016-10-15T04:58:52.067Z,0
2016-10-15T04:59:52.037Z,0
2016-10-15T05:00:52.021Z,0
2016-10-15T05:01:52.004Z,0
2016-10-15T05:02:52.006Z,0
2016-10-15T05:03:52.003Z,0
2016-10-15T05:04:51.947Z,0
2016-10-15T05:05:51.973Z,0
2016-10-15T05:06:51.933Z,0
2016-10-15T05:07:51.935Z,0
2016-10-15T05:08:51.931Z,0
2016-10-15T05:09:51.889Z,0
2016-10-15T05:10:51.902Z,0
2016-10-15T05:11:51.874Z,0
2016-10-15T05:12:51.870Z,0
2016-10-15T05:13:51.873Z,0
2016-10-15T05:14:51.835Z,0
2016-10-15T05:15:51.818Z,0
2016-10-15T05:16:51.801Z,0
2016-10-15T05:17:51.816Z,0
2016-10-15T05:18:51.828Z,0
2016-10-15T05:19:51.799Z,0
2016-10-15T05:20:51.771Z,0
2016-10-15T05:21:51.760Z,0
2016-10-15T05:22:51.746Z,5
2016-10-15T05:23:51.726Z,5
2016-10-15T05:24:52.007Z,5
2016-10-15T05:25:51.676Z,5
2016-10-15T05:26:51.675Z,10
2016-10-15T05:27:51.670Z,10
2016-10-15T05:28:51.680Z,10
2016-10-15T05:29:51.632Z,10
2016-10-15T05:30:51.714Z,15
2016-10-15T05:31:51.595Z,15
2016-10-15T05:32:51.587Z,20
2016-10-15T05:33:51.885Z,20
2016-10-15T05:34:51.588Z,25
2016-10-15T05:35:51.590Z,25
2016-10-15T05:36:51.550Z,30
2016-10-15T05:37:51.555Z,30
2016-10-15T05:38:51.512Z,35
2016-10-15T05:39:51.544Z,40
2016-10-15T05:40:51.487Z,45
2016-10-15T05:41:51.482Z,50
2016-10-15T05:42:51.511Z,60
2016-10-15T05:43:51.479Z,60
2016-10-15T05:44:51.464Z,65
2016-10-15T05:45:51.442Z,80
2016-10-15T05:46:51.420Z,100
2016-10-15T05:47:51.406Z,95
2016-10-15T05:48:51.409Z,125
2016-10-15T05:49:51.401Z,140
2016-10-15T05:50:51.379Z,140
2016-10-15T05:51:51.370Z,135
2016-10-15T05:52:51.359Z,145
2016-10-15T05:53:51.347Z,155
2016-10-15T05:54:51.351Z,135
2016-10-15T05:55:51.304Z,160
2016-10-15T05:56:51.360Z,230
2016-10-15T05:57:51.279Z,235
2016-10-15T05:58:51.274Z,230
2016-10-15T05:59:51.239Z,240
2016-10-15T06:00:51.562Z,255
2016-10-15T06:01:51.246Z,265
2016-10-15T06:02:51.548Z,270
2016-10-15T06:03:51.198Z,260
2016-10-15T06:04:51.209Z,265
2016-10-15T06:05:51.170Z,285
2016-10-15T06:06:51.194Z,270
2016-10-15T06:07:51.168Z,260
2016-10-15T06:08:51.164Z,250
2016-10-15T06:09:51.137Z,220
2016-10-15T06:10:51.435Z,210
2016-10-15T06:11:51.131Z,260
2016-10-15T06:12:51.113Z,265
2016-10-15T06:13:51.084Z,230
2016-10-15T06:14:51.083Z,195
2016-10-15T06:15:51.058Z,215
2016-10-15T06:16:51.021Z,230
2016-10-15T06:17:51.054Z,285
2016-10-15T06:18:51.033Z,275
2016-10-15T06:19:51.003Z,250
2016-10-15T06:20:51.013Z,255
2016-10-15T06:21:50.981Z,325
2016-10-15T06:22:50.950Z,460
2016-10-15T06:23:50.992Z,510
2016-10-15T06:24:50.943Z,475
2016-10-15T06:25:50.937Z,340
2016-10-15T06:26:50.936Z,545
2016-10-15T06:27:50.905Z,570
2016-10-15T06:28:50.905Z,590
2016-10-15T06:29:50.908Z,605
2016-10-15T06:30:50.886Z,600
2016-10-15T06:31:50.843Z,630
2016-10-15T06:32:50.855Z,645
2016-10-15T06:33:50.824Z,665
2016-10-15T06:34:50.808Z,675
2016-10-15T06:35:50.817Z,690
2016-10-15T06:36:50.802Z,705
2016-10-15T06:37:50.782Z,720
2016-10-15T06:38:50.765Z,725
2016-10-15T06:39:50.757Z,760
2016-10-15T06:40:50.734Z,780
2016-10-15T06:41:50.748Z,770
2016-10-15T06:42:50.741Z,775
2016-10-15T06:43:50.715Z,795
2016-10-15T06:44:50.676Z,815
2016-10-15T06:45:50.692Z,860
2016-10-15T06:46:50.690Z,915
2016-10-15T06:47:50.688Z,965
2016-10-15T06:48:50.698Z,1010
2016-10-15T06:49:50.654Z,1030
2016-10-15T06:50:50.640Z,1010
2016-10-15T06:51:50.604Z,675
2016-10-15T06:52:50.652Z,655
2016-10-15T06:53:50.604Z,640
2016-10-15T06:54:50.603Z,645
2016-10-15T06:55:50.601Z,880
2016-10-15T06:56:50.576Z,1210
2016-10-15T06:57:50.554Z,710
2016-10-15T06:58:50.540Z,695
2016-10-15T06:59:50.529Z,690
2016-10-15T07:00:50.514Z,1130
2016-10-15T07:01:50.521Z,1335
2016-10-15T07:02:50.524Z,1400
2016-10-15T07:03:50.504Z,925
2016-10-15T07:04:50.518Z,1155
2016-10-15T07:05:50.489Z,1075
2016-10-15T07:06:50.462Z,805
2016-10-15T07:07:50.452Z,775
2016-10-15T07:08:50.468Z,755
2016-10-15T07:09:50.472Z,790
2016-10-15T07:10:50.415Z,980
2016-10-15T07:11:50.437Z,775
2016-10-15T07:12:50.406Z,685
2016-10-15T07:13:50.410Z,660
2016-10-15T07:14:50.382Z,625
2016-10-15T07:15:50.388Z,610
2016-10-15T07:16:50.363Z,605
2016-10-15T07:17:50.407Z,595
2016-10-15T07:18:50.384Z,580
2016-10-15T07:19:50.342Z,575
2016-10-15T07:20:50.482Z,600
2016-10-15T07:21:50.326Z,760
2016-10-15T07:22:50.322Z,1410
2016-10-15T07:23:50.325Z,740
2016-10-15T07:24:50.305Z,675
2016-10-15T07:25:50.291Z,1425
2016-10-15T07:26:50.299Z,1060
2016-10-15T07:27:50.268Z,1405
2016-10-15T07:28:50.269Z,1405
2016-10-15T07:29:50.249Z,1385
2016-10-15T07:30:50.256Z,1395
2016-10-15T07:31:50.223Z,1430
2016-10-15T07:32:50.212Z,1345
2016-10-15T07:33:50.186Z,1295
2016-10-15T07:34:50.179Z,1075
2016-10-15T07:35:50.186Z,715
2016-10-15T07:36:50.144Z,555
2016-10-15T07:37:50.170Z,605
2016-10-15T07:38:50.159Z,1475
2016-10-15T07:39:50.147Z,1475
2016-10-15T07:40:50.146Z,1705
2016-10-15T07:41:50.108Z,1570
2016-10-15T07:42:50.098Z,1400
2016-10-15T07:43:50.124Z,1480
2016-10-15T07:44:50.088Z,1740
2016-10-15T07:45:50.058Z,1665
2016-10-15T07:46:50.095Z,1805
2016-10-15T07:47:50.076Z,1780
2016-10-15T07:48:50.038Z,1915
2016-10-15T07:49:50.054Z,1860
2016-10-15T07:50:50.056Z,1855
2016-10-15T07:51:50.027Z,1850
2016-10-15T07:52:50.025Z,1410
2016-10-15T07:53:49.992Z,2120
2016-10-15T07:54:50.019Z,1985
2016-10-15T07:55:50.007Z,1625
2016-10-15T07:56:49.976Z,1475
2016-10-15T07:57:49.970Z,1635
2016-10-15T07:58:49.989Z,1475
2016-10-15T07:59:49.947Z,1665
2016-10-15T08:00:49.976Z,1225
2016-10-15T08:01:49.944Z,1675
2016-10-15T08:02:50.250Z,1550
2016-10-15T08:03:49.947Z,1825
2016-10-15T08:04:49.909Z,2155
2016-10-15T08:05:49.931Z,1975
2016-10-15T08:06:49.884Z,1535
2016-10-15T08:07:50.072Z,1335
2016-10-15T08:08:49.902Z,1400
2016-10-15T08:09:49.867Z,1260
2016-10-15T08:10:49.850Z,1320
2016-10-15T08:11:49.835Z,1650
2016-10-15T08:12:49.871Z,1400
2016-10-15T08:13:49.817Z,1325
2016-10-15T08:14:49.816Z,1375
2016-10-15T08:15:49.825Z,1290
2016-10-15T08:16:49.821Z,1260
2016-10-15T08:17:49.785Z,1205
2016-10-15T08:18:49.792Z,1090
2016-10-15T08:19:49.782Z,1005
2016-10-15T08:20:49.782Z,940
2016-10-15T08:21:49.749Z,910
2016-10-15T08:22:49.755Z,890
2016-10-15T08:23:49.934Z,875
2016-10-15T08:24:49.738Z,845
2016-10-15T08:25:49.721Z,815
2016-10-15T08:26:49.716Z,800
2016-10-15T08:27:49.689Z,795
2016-10-15T08:28:49.725Z,775
2016-10-15T08:29:49.720Z,760
2016-10-15T08:30:49.681Z,765
2016-10-15T08:31:49.686Z,780
2016-10-15T08:32:49.644Z,840
2016-10-15T08:33:49.639Z,925
2016-10-15T08:34:49.640Z,965
2016-10-15T08:35:49.648Z,955
2016-10-15T08:36:49.619Z,945
2016-10-15T08:37:49.604Z,950
2016-10-15T08:38:49.600Z,955
2016-10-15T08:39:49.610Z,945
2016-10-15T08:40:49.553Z,920
2016-10-15T08:41:49.577Z,890
2016-10-15T08:42:49.574Z,900
2016-10-15T08:43:49.551Z,875
2016-10-15T08:44:49.529Z,810
2016-10-15T08:45:49.557Z,755
2016-10-15T08:46:49.533Z,1235
2016-10-15T08:47:49.522Z,1010
2016-10-15T08:48:49.502Z,1685
2016-10-15T08:49:49.510Z,1000
2016-10-15T08:50:49.497Z,1530
2016-10-15T08:51:49.507Z,2135
2016-10-15T08:52:49.462Z,2920
2016-10-15T08:53:49.434Z,1610
2016-10-15T08:54:49.446Z,1335
2016-10-15T08:55:49.452Z,2590
2016-10-15T08:56:49.423Z,2400
2016-10-15T08:57:49.423Z,2660
2016-10-15T08:58:49.386Z,2840
2016-10-15T08:59:49.419Z,2770
2016-10-15T09:00:49.378Z,1670
2016-10-15T09:01:49.387Z,2515
2016-10-15T09:02:49.374Z,2180
2016-10-15T09:03:49.345Z,2355
2016-10-15T09:04:49.358Z,2525
2016-10-15T09:05:49.327Z,2455
2016-10-15T09:06:49.331Z,2495
2016-10-15T09:07:49.328Z,2290
2016-10-15T09:08:49.340Z,2235
2016-10-15T09:09:49.301Z,1925
2016-10-15T09:10:49.322Z,1735
2016-10-15T09:11:49.288Z,1455
2016-10-15T09:12:49.275Z,1815
2016-10-15T09:13:49.284Z,1960
2016-10-15T09:14:49.284Z,1960
2016-10-15T09:15:49.274Z,1975
2016-10-15T09:16:49.235Z,1825
2016-10-15T09:17:49.247Z,1645
2016-10-15T09:18:49.224Z,1840
2016-10-15T09:19:49.228Z,3145
2016-10-15T09:20:49.310Z,3080
2016-10-15T09:21:49.192Z,3130
2016-10-15T09:22:49.205Z,2915
2016-10-15T09:23:49.200Z,2945
2016-10-15T09:24:49.210Z,2830
2016-10-15T09:25:49.189Z,2825
2016-10-15T09:26:49.174Z,2850
2016-10-15T09:27:49.174Z,2320
2016-10-15T09:28:49.164Z,2035
2016-10-15T09:29:49.143Z,1995
2016-10-15T09:30:49.161Z,1640
2016-10-15T09:31:49.148Z,1795
2016-10-15T09:32:49.131Z,2760
2016-10-15T09:33:49.104Z,3390
2016-10-15T09:34:49.111Z,3415
2016-10-15T09:35:49.104Z,2835
2016-10-15T09:36:49.132Z,3505
2016-10-15T09:37:49.101Z,3760
2016-10-15T09:38:49.078Z,3785
2016-10-15T09:39:49.085Z,3815
2016-10-15T09:40:49.075Z,3880
2016-10-15T09:41:49.088Z,3935
2016-10-15T09:42:49.034Z,3200
2016-10-15T09:43:49.059Z,2305
2016-10-15T09:44:49.051Z,2225
2016-10-15T09:45:49.032Z,2280
2016-10-15T09:46:49.046Z,1705
2016-10-15T09:47:49.019Z,1900
2016-10-15T09:48:49.015Z,1980
2016-10-15T09:49:49.038Z,2635
2016-10-15T09:50:49.033Z,2300
2016-10-15T09:51:49.020Z,2285
2016-10-15T09:52:48.990Z,1845
2016-10-15T09:53:48.993Z,2370
2016-10-15T09:54:48.990Z,2510
2016-10-15T09:55:49.003Z,1425
2016-10-15T09:56:48.979Z,2390
2016-10-15T09:57:48.979Z,2870
2016-10-15T09:58:48.970Z,3190
2016-10-15T09:59:48.976Z,2080
2016-10-15T10:00:48.977Z,2330
2016-10-15T10:01:48.958Z,1280
2016-10-15T10:02:48.947Z,3085
2016-10-15T10:03:48.941Z,1705
2016-10-15T10:04:48.974Z,2220
2016-10-15T10:05:48.906Z,1445
2016-10-15T10:06:48.942Z,2090
2016-10-15T10:07:48.907Z,1645
2016-10-15T10:08:48.898Z,1510
2016-10-15T10:09:48.911Z,2000
2016-10-15T10:10:48.883Z,3570
2016-10-15T10:11:48.922Z,2980
2016-10-15T10:12:48.930Z,2285
2016-10-15T10:13:48.870Z,1795
2016-10-15T10:14:48.887Z,2050
2016-10-15T10:15:48.891Z,2595
2016-10-15T10:16:48.869Z,2750
2016-10-15T10:17:48.855Z,2685
2016-10-15T10:18:48.852Z,2710
2016-10-15T10:19:48.863Z,2810
2016-10-15T10:20:48.832Z,2710
2016-10-15T10:21:48.853Z,2680
2016-10-15T10:22:48.818Z,2760
2016-10-15T10:23:48.828Z,3015
2016-10-15T10:24:48.794Z,3165
2016-10-15T10:25:48.803Z,3045
2016-10-15T10:26:48.801Z,2905
2016-10-15T10:27:48.780Z,3015
2016-10-15T10:28:48.878Z,3080
2016-10-15T10:29:48.773Z,3075
2016-10-15T10:30:48.775Z,3080
2016-10-15T10:31:48.740Z,3165
2016-10-15T10:32:48.754Z,2950
2016-10-15T10:33:48.768Z,3075
2016-10-15T10:34:48.741Z,3320
2016-10-15T10:35:48.707Z,3110
2016-10-15T10:36:48.761Z,3055
2016-10-15T10:37:48.742Z,3535
2016-10-15T10:38:48.710Z,3565
2016-10-15T10:39:49.057Z,3010
2016-10-15T10:40:48.700Z,3075
2016-10-15T10:41:48.729Z,3305
2016-10-15T10:42:48.715Z,3795
2016-10-15T10:43:48.691Z,3270
2016-10-15T10:44:48.674Z,3095
2016-10-15T10:45:48.687Z,2080
2016-10-15T10:46:48.697Z,2080
2016-10-15T10:47:48.673Z,2195
2016-10-15T10:48:48.674Z,3600
2016-10-15T10:49:48.643Z,3500
2016-10-15T10:50:48.689Z,2560
2016-10-15T10:51:48.641Z,1645
2016-10-15T10:52:48.657Z,1210
2016-10-15T10:53:48.666Z,1375
2016-10-15T10:54:48.637Z,1735
2016-10-15T10:55:48.628Z,2010
2016-10-15T10:56:48.603Z,2155
2016-10-15T10:57:48.638Z,1625
2016-10-15T10:58:48.632Z,1955
2016-10-15T10:59:48.677Z,2810
2016-10-15T11:00:48.602Z,3600
2016-10-15T11:01:48.626Z,1870
2016-10-15T11:02:48.582Z,1135
2016-10-15T11:03:48.606Z,965
2016-10-15T11:04:48.759Z,840
2016-10-15T11:05:48.553Z,805
2016-10-15T11:06:48.556Z,720
2016-10-15T11:07:48.581Z,815
2016-10-15T11:08:48.568Z,2215
2016-10-15T11:09:48.508Z,2035
2016-10-15T11:10:48.540Z,1890
2016-10-15T11:11:48.537Z,1805
2016-10-15T11:12:48.545Z,2185
2016-10-15T11:13:48.523Z,3115
2016-10-15T11:14:48.515Z,3400
2016-10-15T11:15:48.509Z,2935
2016-10-15T11:16:48.476Z,3890
2016-10-15T11:17:48.488Z,3715
2016-10-15T11:18:48.453Z,3950
2016-10-15T11:19:48.463Z,3945
2016-10-15T11:20:48.514Z,3495
2016-10-15T11:21:48.486Z,3900
2016-10-15T11:22:48.453Z,2830
2016-10-15T11:23:48.467Z,1260
2016-10-15T11:24:48.418Z,1395
2016-10-15T11:25:48.448Z,1615
2016-10-15T11:26:48.714Z,1820
2016-10-15T11:27:48.423Z,2220
2016-10-15T11:28:48.424Z,2655
2016-10-15T11:29:48.394Z,1765
2016-10-15T11:30:48.395Z,1860
2016-10-15T11:31:48.401Z,1765
2016-10-15T11:32:48.420Z,2350
2016-10-15T11:33:48.369Z,2515
2016-10-15T11:34:48.383Z,2435
2016-10-15T11:35:48.350Z,2330
2016-10-15T11:36:48.374Z,2320
2016-10-15T11:37:48.374Z,2395
2016-10-15T11:38:48.367Z,2295
2016-10-15T11:39:48.330Z,2385
2016-10-15T11:40:48.339Z,2535
2016-10-15T11:41:48.323Z,2765
2016-10-15T11:42:48.308Z,1880
2016-10-15T11:43:48.315Z,1715
2016-10-15T11:44:48.308Z,2650
2016-10-15T11:45:48.287Z,1570
2016-10-15T11:46:48.319Z,1205
2016-10-15T11:47:48.269Z,1660
2016-10-15T11:48:48.299Z,1475
2016-10-15T11:49:48.282Z,1175
2016-10-15T11:50:48.290Z,1255
2016-10-15T11:51:48.287Z,1395
2016-10-15T11:52:48.259Z,1520
2016-10-15T11:53:48.237Z,1305
2016-10-15T11:54:48.221Z,1570
2016-10-15T11:55:48.236Z,2120
2016-10-15T11:56:48.218Z,3145
2016-10-15T11:57:48.233Z,1630
2016-10-15T11:58:48.214Z,1480
2016-10-15T11:59:48.523Z,1335
2016-10-15T12:00:48.192Z,1400
2016-10-15T12:01:48.183Z,1580
2016-10-15T12:02:48.173Z,1680
2016-10-15T12:03:48.213Z,1505
2016-10-15T12:04:48.175Z,1470
2016-10-15T12:05:48.161Z,1430
2016-10-15T12:06:48.147Z,1165
2016-10-15T12:07:48.133Z,1240
2016-10-15T12:08:48.173Z,1510
2016-10-15T12:09:48.146Z,1680
2016-10-15T12:10:48.102Z,1410
2016-10-15T12:11:48.086Z,1325
2016-10-15T12:12:48.189Z,1695
2016-10-15T12:13:48.087Z,1985
2016-10-15T12:14:48.094Z,1860
2016-10-15T12:15:48.076Z,1250
2016-10-15T12:16:48.069Z,1300
2016-10-15T12:17:48.050Z,1655
2016-10-15T12:18:48.040Z,1940
2016-10-15T12:19:48.018Z,1835
2016-10-15T12:20:48.036Z,1390
2016-10-15T12:21:48.006Z,1685
2016-10-15T12:22:48.003Z,1825
2016-10-15T12:23:47.966Z,1505
2016-10-15T12:24:47.963Z,1705
2016-10-15T12:25:47.952Z,1600
2016-10-15T12:26:47.941Z,1715
2016-10-15T12:27:47.950Z,1970
2016-10-15T12:28:47.919Z,2810
2016-10-15T12:29:47.923Z,1645
2016-10-15T12:30:47.915Z,895
2016-10-15T12:31:47.917Z,1145
2016-10-15T12:32:47.911Z,1800
2016-10-15T12:33:47.905Z,1535
2016-10-15T12:34:47.882Z,2055
2016-10-15T12:35:47.891Z,1285
2016-10-15T12:36:47.864Z,870
2016-10-15T12:37:47.877Z,1405
2016-10-15T12:38:47.841Z,1555
2016-10-15T12:39:47.841Z,1270
2016-10-15T12:40:47.821Z,1600
2016-10-15T12:41:47.817Z,955
2016-10-15T12:42:47.795Z,850
2016-10-15T12:43:47.805Z,1275
2016-10-15T12:44:47.771Z,1340
2016-10-15T12:45:47.786Z,1080
2016-10-15T12:46:47.776Z,1045
2016-10-15T12:47:47.733Z,1330
2016-10-15T12:48:47.770Z,850
2016-10-15T12:49:47.758Z,735
2016-10-15T12:50:47.744Z,745
2016-10-15T12:51:47.722Z,830
2016-10-15T12:52:47.738Z,1305
2016-10-15T12:53:47.921Z,1125
2016-10-15T12:54:47.702Z,825
2016-10-15T12:55:47.711Z,785
2016-10-15T12:56:47.681Z,900
2016-10-15T12:57:47.664Z,945
2016-10-15T12:58:47.756Z,1000
2016-10-15T12:59:47.623Z,1055
2016-10-15T13:00:47.637Z,1105
2016-10-15T13:01:47.640Z,955
2016-10-15T13:02:47.621Z,1040
2016-10-15T13:03:47.609Z,1355
2016-10-15T13:04:47.631Z,1570
2016-10-15T13:05:47.609Z,2825
2016-10-15T13:06:47.563Z,1120
2016-10-15T13:07:47.895Z,1010
2016-10-15T13:08:47.575Z,800
2016-10-15T13:09:47.765Z,750
2016-10-15T13:10:47.556Z,895
2016-10-15T13:11:47.550Z,1255
2016-10-15T13:12:47.546Z,1285
2016-10-15T13:13:47.501Z,1325
2016-10-15T13:14:47.563Z,1565
2016-10-15T13:15:47.494Z,925
2016-10-15T13:16:47.840Z,820
2016-10-15T13:17:47.477Z,845
2016-10-15T13:18:47.484Z,930
2016-10-15T13:19:47.457Z,1120
2016-10-15T13:20:47.475Z,1120
2016-10-15T13:21:47.456Z,820
2016-10-15T13:22:47.449Z,980
2016-10-15T13:23:47.444Z,1390
2016-10-15T13:24:47.489Z,1305
2016-10-15T13:25:47.399Z,1320
2016-10-15T13:26:47.422Z,1340
2016-10-15T13:27:47.388Z,985
2016-10-15T13:28:47.385Z,1050
2016-10-15T13:29:47.383Z,1045
2016-10-15T13:30:47.344Z,980
2016-10-15T13:31:47.372Z,945
2016-10-15T13:32:47.319Z,895
2016-10-15T13:33:47.313Z,1050
2016-10-15T13:34:47.363Z,1930
2016-10-15T13:35:47.315Z,1140
2016-10-15T13:36:47.299Z,1015
2016-10-15T13:37:47.300Z,1020
2016-10-15T13:38:47.261Z,1295
2016-10-15T13:39:47.280Z,1480
2016-10-15T13:40:47.252Z,1395
2016-10-15T13:41:47.262Z,1245
2016-10-15T13:42:47.238Z,1325
2016-10-15T13:43:47.258Z,1360
2016-10-15T13:44:47.231Z,1490
2016-10-15T13:45:47.216Z,1545
2016-10-15T13:46:47.213Z,1770
2016-10-15T13:47:47.195Z,1850
2016-10-15T13:48:47.180Z,1595
2016-10-15T13:49:47.192Z,1410
2016-10-15T13:50:47.144Z,1295
2016-10-15T13:51:47.179Z,1230
2016-10-15T13:52:47.147Z,1140
2016-10-15T13:53:47.157Z,1080
2016-10-15T13:54:47.119Z,1090
2016-10-15T13:55:47.138Z,1205
2016-10-15T13:56:47.088Z,1380
2016-10-15T13:57:47.108Z,1410